North Conway, New Hampshire
Current Conditions -  °F | °C
As of 4:54 AM on Monday 20 Oct 2014 (Local Time) from KIZG Reporting Station
Clear Clear  
Wind Chill: 31°   Ceiling: Unl
Heat Index: 37°   Visibility: 10mi
Dew Point: 23°   Wind: 8mph
Humidity: 57%   Direction: 280°W
Pressure: 29.93"   Gusts: NA
Location:  44.05°N, 71.13°W
Report Text: KIZG 200854Z AUTO 28007KT 10SM CLR 03/M05 A2993 RMK AO2 SLP139 T00281050 51007
Loading
Personal Weather Stations






























Interactive Weather Map
Tropical Storm Tracking
New forecast layout! Learn more

10-Day Weather Forecast

Advertisements
Track Severe Weather on mobile